• Join FlightAware (Why Join?)
  • Login
  • US Flag 
02:22PM EDT


 

Airport Tracker/Info


-or-


 

Live Flight TrackerFlight Track Log ✈ AWE3268 ✈ 18-Aug-2013 ✈ KPHL - KMHT

Flight Track Log - Related Links

Times and Time Zones

All times are in EDT time to prevent confusion due to time zone crossing. See the AWE3268 flight status page for this flight to view local times or setup timezone preferences in your user account.

Time Position Orientation Groundspeed Altitude Reporting Facility
EDT Latitude Longitude Course Direction KTS MPH feet Rate Location/Type
04:36PM 39.8833 -75.2167 37° Northeast 160 184 900  Level Philadelphia TRACON
04:37PM 39.8667 -75.1167 102° East 226 260 2,900 1,860 Climbing Philadelphia TRACON
04:38PM 39.7978 -74.7721 105° East  Level FlightAware Approximate
04:38PM 39.8500 -75.0333 105° East 266 306 5,500  Level Philadelphia TRACON
04:39PM 39.8355 -74.6479 37° Northeast  Level FlightAware Approximate
04:40PM 39.9366 -74.5634 37° Northeast  Level FlightAware Approximate
04:40PM 39.8139 -74.8436 104° East 288 331 10,000  Level New York Center
04:41PM 40.0343 -74.4658 37° Northeast  Level FlightAware Approximate
04:41PM 39.8031 -74.7322 97° East 298 343 12,400  Level New York Center
04:42PM 39.8667 -74.6439 47° Northeast 282 325 14,800 1,800 Climbing New York Center
04:43PM 39.9461 -74.5669 37° Northeast 304 350 16,000 1,500 Climbing New York Center
04:44PM 40.0364 -74.4797 36° Northeast 365 420 17,800 1,560 Climbing New York Center
04:45PM 40.1247 -74.3894 38° Northeast 394 453 19,200 1,380 Climbing New York Center
04:46PM 40.2172 -74.2964 38° Northeast 405 466 20,600 1,320 Climbing New York Center
04:47PM 40.3161 -74.1981 37° Northeast 421 484 21,900 1,320 Climbing New York Center
04:48PM 40.4169 -74.0967 37° Northeast 435 501 23,300 1,260 Climbing New York Center
04:49PM 40.5175 -73.9953 37° Northeast 446 513 24,500 1,080 Climbing New York Center
04:51PM 40.8064 -73.9619 North 456 525 26,900 720 Climbing Boston Center
04:52PM 40.9336 -73.9511 North 456 525 27,000  Climbing Boston Center
04:53PM 41.0608 -73.9403 North 461 531 27,000  Level Boston Center
04:54PM 41.1900 -73.9322 North 461 531 27,000  Level Boston Center
04:55PM 41.3175 -73.9214 North 461 531 27,000  Level Boston Center
04:56PM 41.4447 -73.9106 North 461 531 27,000  Level Boston Center
04:57PM 41.5844 -73.9000 North 461 531 27,000  Level Boston Center
04:58PM 41.7139 -73.8889 North 461 531 27,000  Level Boston Center
04:59PM 41.8411 -73.8808 North 461 531 27,000  Level Boston Center
05:00PM 41.9725 -73.8697 North 455 524 27,000  Level Boston Center
05:01PM 42.1000 -73.8308 13° North 461 531 27,000 -660 Level Boston Center
05:02PM 42.1764 -73.7317 44° Northeast 444 511 25,800 -1,560 Descending Boston Center
05:03PM 42.2636 -73.5425 58° Northeast 445 512 23,900 -1,740 Descending Boston Center
05:04PM 42.3256 -73.3978 60° Northeast 456 525 22,300 -1,560 Descending Boston Center
05:05PM 42.3850 -73.2553 61° Northeast 438 504 20,800 -1,500 Descending Boston Center
05:06PM 42.4422 -73.1208 60° Northeast 423 487 19,300 -960 Descending Boston Center
05:07PM 42.4908 -73.0061 60° Northeast 394 453 19,000 -180 Descending Boston Center
05:08PM 42.5558 -72.8600 59° Northeast 402 463 19,000  Level Boston Center
05:09PM 42.6083 -72.7392 59° Northeast 402 463 19,000 -840 Level Boston Center
05:10PM 42.6628 -72.6094 60° Northeast 395 455 17,400 -1,740 Descending Boston Center
05:11PM 42.7150 -72.4853 60° Northeast 395 455 15,600 -1,740 Descending Boston Center
05:12PM 42.7631 -72.3722 60° Northeast 369 425 14,000 -1,620 Descending Boston Center
05:13PM 42.7961 -72.2533 69° East 340 391 12,500 -1,440 Descending Boston Center
05:14PM 42.8044 -72.1486 84° East 299 344 11,200 -1,440 Descending Boston Center
05:15PM 42.8144 -72.0239 84° East 294 338 9,600 -1,620 Descending Boston Center
05:16PM 42.8222 -71.9250 84° East 294 338 8,000 -1,740 Descending Boston Center
05:17PM 42.8761 -71.8308 52° Northeast 276 318 5,900 -1,560 Descending Boston Center
05:18PM 42.9381 -71.7397 47° Northeast 270 311 4,600 -1,080 Descending Boston Center
05:19PM 42.9731 -71.6711 55° Northeast 251 289 3,800 -960 Descending Boston Center
05:20PM 43.0100 -71.5997 55° Northeast 220 253 2,700 -780 Descending Boston Center
05:21PM 43.0242 -71.5369 73° East 192 221 2,300 -780 Descending Boston Center
05:22PM 43.0050 -71.4806 115° Southeast 154 177 1,200 -720 Descending Boston Center
05:23PM 42.9714 -71.4583 154° Southeast 136 157 900 -420 Descending Boston Center
05:24PM 42.9336 -71.4278 149° Southeast 142 163 400 -540 Descending Boston Center